sensor_id;sensor_type;location;lat;lon;timestamp;temperature;humidity
22956;DHT22;40888;48.148;11.526;2023-05-17T00:02:08;8.50;99.90
22956;DHT22;40888;48.148;11.526;2023-05-17T00:04:34;8.60;99.90
22956;DHT22;40888;48.148;11.526;2023-05-17T00:07:00;8.50;99.90
22956;DHT22;40888;48.148;11.526;2023-05-17T00:09:26;8.40;99.90
22956;DHT22;40888;48.148;11.526;2023-05-17T00:11:52;8.20;99.90
22956;DHT22;40888;48.148;11.526;2023-05-17T00:14:17;8.30;99.90
22956;DHT22;40888;48.148;11.526;2023-05-17T00:16:43;8.50;99.90
22956;DHT22;40888;48.148;11.526;2023-05-17T00:19:09;8.30;99.90
22956;DHT22;40888;48.148;11.526;2023-05-17T00:21:35;8.40;99.90
22956;DHT22;40888;48.148;11.526;2023-05-17T00:24:00;8.40;99.90
22956;DHT22;40888;48.148;11.526;2023-05-17T00:26:26;8.20;99.90
22956;DHT22;40888;48.148;11.526;2023-05-17T00:28:52;8.20;99.90
22956;DHT22;40888;48.148;11.526;2023-05-17T00:31:18;8.30;99.90
22956;DHT22;40888;48.148;11.526;2023-05-17T00:33:43;8.30;99.90
22956;DHT22;40888;48.148;11.526;2023-05-17T00:36:09;8.30;99.90
22956;DHT22;40888;48.148;11.526;2023-05-17T00:38:35;8.30;99.90
22956;DHT22;40888;48.148;11.526;2023-05-17T00:41:00;8.30;99.90
22956;DHT22;40888;48.148;11.526;2023-05-17T00:43:26;8.30;99.90
22956;DHT22;40888;48.148;11.526;2023-05-17T00:45:52;8.10;99.90
22956;DHT22;40888;48.148;11.526;2023-05-17T00:48:18;8.20;99.90
22956;DHT22;40888;48.148;11.526;2023-05-17T00:50:47;8.20;99.90
22956;DHT22;40888;48.148;11.526;2023-05-17T00:53:13;8.30;99.90
22956;DHT22;40888;48.148;11.526;2023-05-17T00:55:44;8.30;99.90
22956;DHT22;40888;48.148;11.526;2023-05-17T00:58:10;8.40;99.90
22956;DHT22;40888;48.148;11.526;2023-05-17T01:00:37;8.40;99.90
22956;DHT22;40888;48.148;11.526;2023-05-17T01:03:02;8.30;99.90
22956;DHT22;40888;48.148;11.526;2023-05-17T01:05:29;8.20;99.90
22956;DHT22;40888;48.148;11.526;2023-05-17T01:07:55;8.20;99.90
22956;DHT22;40888;48.148;11.526;2023-05-17T01:10:23;8.30;99.90
22956;DHT22;40888;48.148;11.526;2023-05-17T01:15:47;8.20;99.90
22956;DHT22;40888;48.148;11.526;2023-05-17T01:18:38;8.20;99.90
22956;DHT22;40888;48.148;11.526;2023-05-17T01:24:26;8.20;99.90
22956;DHT22;40888;48.148;11.526;2023-05-17T01:26:54;8.00;99.90
22956;DHT22;40888;48.148;11.526;2023-05-17T01:29:23;7.90;99.90
22956;DHT22;40888;48.148;11.526;2023-05-17T01:31:52;8.00;99.90
22956;DHT22;40888;48.148;11.526;2023-05-17T01:34:25;7.90;99.90
22956;DHT22;40888;48.148;11.526;2023-05-17T01:36:50;8.00;99.90
22956;DHT22;40888;48.148;11.526;2023-05-17T01:39:16;8.00;99.90
22956;DHT22;40888;48.148;11.526;2023-05-17T01:41:46;8.00;99.90
22956;DHT22;40888;48.148;11.526;2023-05-17T01:44:39;7.90;99.90
22956;DHT22;40888;48.148;11.526;2023-05-17T01:47:19;7.90;99.90
22956;DHT22;40888;48.148;11.526;2023-05-17T01:49:48;8.00;99.90
22956;DHT22;40888;48.148;11.526;2023-05-17T01:52:49;8.00;99.90
22956;DHT22;40888;48.148;11.526;2023-05-17T01:57:56;8.00;99.90
22956;DHT22;40888;48.148;11.526;2023-05-17T02:00:24;8.00;99.90
22956;DHT22;40888;48.148;11.526;2023-05-17T02:02:49;8.00;99.90
22956;DHT22;40888;48.148;11.526;2023-05-17T02:05:15;8.10;99.90
22956;DHT22;40888;48.148;11.526;2023-05-17T02:07:41;8.00;99.90
22956;DHT22;40888;48.148;11.526;2023-05-17T02:10:07;8.00;99.90
22956;DHT22;40888;48.148;11.526;2023-05-17T02:12:33;8.00;99.90
22956;DHT22;40888;48.148;11.526;2023-05-17T02:14:59;7.90;99.90
22956;DHT22;40888;48.148;11.526;2023-05-17T02:17:25;7.90;99.90
22956;DHT22;40888;48.148;11.526;2023-05-17T02:19:50;7.90;99.90
22956;DHT22;40888;48.148;11.526;2023-05-17T02:22:16;8.00;99.90
22956;DHT22;40888;48.148;11.526;2023-05-17T02:24:42;8.00;99.90
22956;DHT22;40888;48.148;11.526;2023-05-17T02:27:07;7.80;99.90
22956;DHT22;40888;48.148;11.526;2023-05-17T02:29:33;7.80;99.90
22956;DHT22;40888;48.148;11.526;2023-05-17T02:31:59;7.90;99.90
22956;DHT22;40888;48.148;11.526;2023-05-17T02:34:25;7.70;99.90
22956;DHT22;40888;48.148;11.526;2023-05-17T02:36:50;7.60;99.90
22956;DHT22;40888;48.148;11.526;2023-05-17T02:39:17;7.70;99.90
22956;DHT22;40888;48.148;11.526;2023-05-17T02:41:43;7.60;99.90
22956;DHT22;40888;48.148;11.526;2023-05-17T02:44:08;7.60;99.90
22956;DHT22;40888;48.148;11.526;2023-05-17T02:46:34;7.70;99.90
22956;DHT22;40888;48.148;11.526;2023-05-17T02:49:00;7.70;99.90
22956;DHT22;40888;48.148;11.526;2023-05-17T02:51:26;7.60;99.90
22956;DHT22;40888;48.148;11.526;2023-05-17T02:53:52;7.50;99.90
22956;DHT22;40888;48.148;11.526;2023-05-17T02:56:17;7.70;99.90
22956;DHT22;40888;48.148;11.526;2023-05-17T02:58:43;7.70;99.90
22956;DHT22;40888;48.148;11.526;2023-05-17T03:01:09;7.70;99.90
22956;DHT22;40888;48.148;11.526;2023-05-17T03:03:35;7.70;99.90
22956;DHT22;40888;48.148;11.526;2023-05-17T03:06:01;7.80;99.90
22956;DHT22;40888;48.148;11.526;2023-05-17T03:08:27;7.80;99.90
22956;DHT22;40888;48.148;11.526;2023-05-17T03:10:52;7.70;99.90
22956;DHT22;40888;48.148;11.526;2023-05-17T03:13:18;7.70;99.90
22956;DHT22;40888;48.148;11.526;2023-05-17T03:15:44;7.80;99.90
22956;DHT22;40888;48.148;11.526;2023-05-17T03:18:10;7.70;99.90
22956;DHT22;40888;48.148;11.526;2023-05-17T03:20:35;7.70;99.90
22956;DHT22;40888;48.148;11.526;2023-05-17T03:23:01;7.70;99.90
22956;DHT22;40888;48.148;11.526;2023-05-17T03:25:27;7.80;99.90
22956;DHT22;40888;48.148;11.526;2023-05-17T03:27:53;7.70;99.90
22956;DHT22;40888;48.148;11.526;2023-05-17T03:30:18;7.70;99.90
22956;DHT22;40888;48.148;11.526;2023-05-17T03:32:44;7.60;99.90
22956;DHT22;40888;48.148;11.526;2023-05-17T03:35:10;7.70;99.90
22956;DHT22;40888;48.148;11.526;2023-05-17T03:37:36;7.70;99.90
22956;DHT22;40888;48.148;11.526;2023-05-17T03:40:02;7.70;99.90
22956;DHT22;40888;48.148;11.526;2023-05-17T03:42:27;7.60;99.90
22956;DHT22;40888;48.148;11.526;2023-05-17T03:44:53;7.50;99.90
22956;DHT22;40888;48.148;11.526;2023-05-17T03:47:19;7.60;99.90
22956;DHT22;40888;48.148;11.526;2023-05-17T03:49:48;7.60;99.90
22956;DHT22;40888;48.148;11.526;2023-05-17T03:52:14;7.60;99.90
22956;DHT22;40888;48.148;11.526;2023-05-17T03:54:40;7.50;99.90
22956;DHT22;40888;48.148;11.526;2023-05-17T03:57:05;7.50;99.90
22956;DHT22;40888;48.148;11.526;2023-05-17T03:59:31;7.60;99.90
22956;DHT22;40888;48.148;11.526;2023-05-17T04:01:57;7.60;99.90
22956;DHT22;40888;48.148;11.526;2023-05-17T04:04:22;7.50;99.90
22956;DHT22;40888;48.148;11.526;2023-05-17T04:06:48;7.50;99.90
22956;DHT22;40888;48.148;11.526;2023-05-17T04:09:14;7.40;99.90
22956;DHT22;40888;48.148;11.526;2023-05-17T04:11:40;7.40;99.90
22956;DHT22;40888;48.148;11.526;2023-05-17T04:14:07;7.60;99.90
22956;DHT22;40888;48.148;11.526;2023-05-17T04:16:32;7.60;99.90
22956;DHT22;40888;48.148;11.526;2023-05-17T04:18:59;7.50;99.90
22956;DHT22;40888;48.148;11.526;2023-05-17T04:21:25;7.60;99.90
22956;DHT22;40888;48.148;11.526;2023-05-17T04:23:51;7.60;99.90
22956;DHT22;40888;48.148;11.526;2023-05-17T04:26:17;7.60;99.90
22956;DHT22;40888;48.148;11.526;2023-05-17T04:28:43;7.60;99.90
22956;DHT22;40888;48.148;11.526;2023-05-17T04:31:09;7.60;99.90
22956;DHT22;40888;48.148;11.526;2023-05-17T04:33:37;7.60;99.90
22956;DHT22;40888;48.148;11.526;2023-05-17T04:36:03;7.60;99.90
22956;DHT22;40888;48.148;11.526;2023-05-17T04:38:29;7.60;99.90
22956;DHT22;40888;48.148;11.526;2023-05-17T04:41:02;7.40;99.90
22956;DHT22;40888;48.148;11.526;2023-05-17T04:43:30;7.50;99.90
22956;DHT22;40888;48.148;11.526;2023-05-17T04:45:59;7.40;99.90
22956;DHT22;40888;48.148;11.526;2023-05-17T04:48:25;7.50;99.90
22956;DHT22;40888;48.148;11.526;2023-05-17T04:50:54;7.50;99.90
22956;DHT22;40888;48.148;11.526;2023-05-17T04:53:20;7.60;99.90
22956;DHT22;40888;48.148;11.526;2023-05-17T04:55:46;7.60;99.90
22956;DHT22;40888;48.148;11.526;2023-05-17T04:58:13;7.50;99.90
22956;DHT22;40888;48.148;11.526;2023-05-17T05:00:39;7.50;99.90
22956;DHT22;40888;48.148;11.526;2023-05-17T05:03:04;7.50;99.90
22956;DHT22;40888;48.148;11.526;2023-05-17T05:05:31;7.60;99.90
22956;DHT22;40888;48.148;11.526;2023-05-17T05:07:57;7.70;99.90
22956;DHT22;40888;48.148;11.526;2023-05-17T05:10:23;7.50;99.90
22956;DHT22;40888;48.148;11.526;2023-05-17T05:12:49;7.50;99.90
22956;DHT22;40888;48.148;11.526;2023-05-17T05:15:15;7.60;99.90
22956;DHT22;40888;48.148;11.526;2023-05-17T05:17:40;7.60;99.90
22956;DHT22;40888;48.148;11.526;2023-05-17T05:20:07;7.60;99.90
22956;DHT22;40888;48.148;11.526;2023-05-17T05:22:34;7.80;99.90
22956;DHT22;40888;48.148;11.526;2023-05-17T05:25:00;7.70;99.90
22956;DHT22;40888;48.148;11.526;2023-05-17T05:27:26;7.80;99.90
22956;DHT22;40888;48.148;11.526;2023-05-17T05:29:52;7.90;99.90
22956;DHT22;40888;48.148;11.526;2023-05-17T05:32:18;7.70;99.90
22956;DHT22;40888;48.148;11.526;2023-05-17T05:34:43;7.80;99.90
22956;DHT22;40888;48.148;11.526;2023-05-17T05:37:09;7.70;99.90
22956;DHT22;40888;48.148;11.526;2023-05-17T05:39:35;7.80;99.90
22956;DHT22;40888;48.148;11.526;2023-05-17T05:42:01;7.80;99.90
22956;DHT22;40888;48.148;11.526;2023-05-17T05:44:29;7.70;99.90
22956;DHT22;40888;48.148;11.526;2023-05-17T05:46:55;7.60;99.90
22956;DHT22;40888;48.148;11.526;2023-05-17T05:49:21;7.30;99.90
22956;DHT22;40888;48.148;11.526;2023-05-17T05:51:46;7.40;99.90
22956;DHT22;40888;48.148;11.526;2023-05-17T05:54:12;7.50;99.90
22956;DHT22;40888;48.148;11.526;2023-05-17T05:56:38;7.60;99.90
22956;DHT22;40888;48.148;11.526;2023-05-17T05:59:04;7.80;99.90
22956;DHT22;40888;48.148;11.526;2023-05-17T06:01:30;7.70;99.90
22956;DHT22;40888;48.148;11.526;2023-05-17T06:03:56;7.60;99.90
22956;DHT22;40888;48.148;11.526;2023-05-17T06:06:21;7.60;99.90
22956;DHT22;40888;48.148;11.526;2023-05-17T06:08:47;7.60;99.90
22956;DHT22;40888;48.148;11.526;2023-05-17T06:11:13;7.60;99.90
22956;DHT22;40888;48.148;11.526;2023-05-17T06:13:39;7.60;99.90
22956;DHT22;40888;48.148;11.526;2023-05-17T06:16:05;7.80;99.90
22956;DHT22;40888;48.148;11.526;2023-05-17T06:18:31;7.90;99.90
22956;DHT22;40888;48.148;11.526;2023-05-17T06:20:57;7.60;99.90
22956;DHT22;40888;48.148;11.526;2023-05-17T06:23:23;7.80;99.90
22956;DHT22;40888;48.148;11.526;2023-05-17T06:25:48;7.90;99.90
22956;DHT22;40888;48.148;11.526;2023-05-17T06:28:15;7.90;99.90
22956;DHT22;40888;48.148;11.526;2023-05-17T06:30:41;7.70;99.90
22956;DHT22;40888;48.148;11.526;2023-05-17T06:33:07;7.70;99.90
22956;DHT22;40888;48.148;11.526;2023-05-17T06:35:34;7.80;99.90
22956;DHT22;40888;48.148;11.526;2023-05-17T06:38:00;7.90;99.90
22956;DHT22;40888;48.148;11.526;2023-05-17T06:40:26;7.90;99.90
22956;DHT22;40888;48.148;11.526;2023-05-17T06:42:52;7.80;99.90
22956;DHT22;40888;48.148;11.526;2023-05-17T06:45:17;7.90;99.90
22956;DHT22;40888;48.148;11.526;2023-05-17T06:47:43;7.90;99.90
22956;DHT22;40888;48.148;11.526;2023-05-17T06:50:09;7.90;99.90
22956;DHT22;40888;48.148;11.526;2023-05-17T06:52:35;8.10;99.90
22956;DHT22;40888;48.148;11.526;2023-05-17T06:55:01;8.10;99.90
22956;DHT22;40888;48.148;11.526;2023-05-17T06:57:27;8.10;99.90
22956;DHT22;40888;48.148;11.526;2023-05-17T06:59:52;8.10;99.90
22956;DHT22;40888;48.148;11.526;2023-05-17T07:02:18;8.20;99.90
22956;DHT22;40888;48.148;11.526;2023-05-17T07:04:44;8.20;99.90
22956;DHT22;40888;48.148;11.526;2023-05-17T07:07:10;8.40;99.90
22956;DHT22;40888;48.148;11.526;2023-05-17T07:09:36;8.60;99.90
22956;DHT22;40888;48.148;11.526;2023-05-17T07:12:04;8.80;99.90
22956;DHT22;40888;48.148;11.526;2023-05-17T07:14:30;8.70;99.90
22956;DHT22;40888;48.148;11.526;2023-05-17T07:16:56;8.60;99.90
22956;DHT22;40888;48.148;11.526;2023-05-17T07:19:22;8.30;99.90
22956;DHT22;40888;48.148;11.526;2023-05-17T07:21:48;8.40;99.90
22956;DHT22;40888;48.148;11.526;2023-05-17T07:24:14;8.50;99.90
22956;DHT22;40888;48.148;11.526;2023-05-17T07:26:39;8.70;99.90
22956;DHT22;40888;48.148;11.526;2023-05-17T07:29:05;8.70;99.90
22956;DHT22;40888;48.148;11.526;2023-05-17T07:31:31;8.50;99.90
22956;DHT22;40888;48.148;11.526;2023-05-17T07:33:56;8.60;99.90
22956;DHT22;40888;48.148;11.526;2023-05-17T07:36:22;8.80;99.90
22956;DHT22;40888;48.148;11.526;2023-05-17T07:38:48;8.70;99.90
22956;DHT22;40888;48.148;11.526;2023-05-17T07:41:14;8.80;99.90
22956;DHT22;40888;48.148;11.526;2023-05-17T07:43:41;8.70;99.90
22956;DHT22;40888;48.148;11.526;2023-05-17T07:46:07;9.10;99.90
22956;DHT22;40888;48.148;11.526;2023-05-17T07:48:33;9.20;99.90
22956;DHT22;40888;48.148;11.526;2023-05-17T07:50:59;9.40;99.90
22956;DHT22;40888;48.148;11.526;2023-05-17T07:53:24;9.40;99.90
22956;DHT22;40888;48.148;11.526;2023-05-17T07:55:50;9.30;99.90
22956;DHT22;40888;48.148;11.526;2023-05-17T07:58:16;9.10;99.90
22956;DHT22;40888;48.148;11.526;2023-05-17T08:00:42;9.30;99.90
22956;DHT22;40888;48.148;11.526;2023-05-17T08:03:08;9.50;99.90
22956;DHT22;40888;48.148;11.526;2023-05-17T08:05:33;9.30;99.90
22956;DHT22;40888;48.148;11.526;2023-05-17T08:07:59;9.00;99.90
22956;DHT22;40888;48.148;11.526;2023-05-17T08:10:26;9.30;99.90
22956;DHT22;40888;48.148;11.526;2023-05-17T08:12:52;9.20;99.90
22956;DHT22;40888;48.148;11.526;2023-05-17T08:15:18;9.40;99.90
22956;DHT22;40888;48.148;11.526;2023-05-17T08:17:44;9.40;99.90
22956;DHT22;40888;48.148;11.526;2023-05-17T08:20:10;9.80;99.90
22956;DHT22;40888;48.148;11.526;2023-05-17T08:22:36;9.30;99.90
22956;DHT22;40888;48.148;11.526;2023-05-17T08:25:02;9.20;99.90
22956;DHT22;40888;48.148;11.526;2023-05-17T08:27:28;9.60;99.90
22956;DHT22;40888;48.148;11.526;2023-05-17T08:29:56;9.50;99.90
22956;DHT22;40888;48.148;11.526;2023-05-17T08:32:23;9.40;99.90
22956;DHT22;40888;48.148;11.526;2023-05-17T08:34:49;9.80;99.90
22956;DHT22;40888;48.148;11.526;2023-05-17T08:37:16;9.70;99.90
22956;DHT22;40888;48.148;11.526;2023-05-17T08:39:42;9.70;99.90
22956;DHT22;40888;48.148;11.526;2023-05-17T08:42:07;9.70;99.90
22956;DHT22;40888;48.148;11.526;2023-05-17T08:44:33;9.90;99.90
22956;DHT22;40888;48.148;11.526;2023-05-17T08:47:02;10.00;99.90
22956;DHT22;40888;48.148;11.526;2023-05-17T08:49:29;9.90;99.90
22956;DHT22;40888;48.148;11.526;2023-05-17T08:52:00;9.50;99.90
22956;DHT22;40888;48.148;11.526;2023-05-17T08:54:26;10.10;99.90
22956;DHT22;40888;48.148;11.526;2023-05-17T08:56:55;9.80;99.90
22956;DHT22;40888;48.148;11.526;2023-05-17T08:59:23;9.90;99.90
22956;DHT22;40888;48.148;11.526;2023-05-17T09:01:52;9.90;99.90
22956;DHT22;40888;48.148;11.526;2023-05-17T09:04:20;9.90;99.90
22956;DHT22;40888;48.148;11.526;2023-05-17T09:06:46;10.00;99.90
22956;DHT22;40888;48.148;11.526;2023-05-17T09:09:11;10.10;99.90
22956;DHT22;40888;48.148;11.526;2023-05-17T09:11:38;10.10;99.90
22956;DHT22;40888;48.148;11.526;2023-05-17T09:14:05;10.20;99.90
22956;DHT22;40888;48.148;11.526;2023-05-17T09:16:35;10.40;99.90
22956;DHT22;40888;48.148;11.526;2023-05-17T09:19:05;10.40;99.90
22956;DHT22;40888;48.148;11.526;2023-05-17T09:21:32;10.40;99.90
22956;DHT22;40888;48.148;11.526;2023-05-17T09:23:59;10.50;99.90
22956;DHT22;40888;48.148;11.526;2023-05-17T09:26:42;10.60;99.90
22956;DHT22;40888;48.148;11.526;2023-05-17T09:29:12;10.60;99.90
22956;DHT22;40888;48.148;11.526;2023-05-17T09:31:39;10.70;99.90
22956;DHT22;40888;48.148;11.526;2023-05-17T09:34:05;10.80;99.90
22956;DHT22;40888;48.148;11.526;2023-05-17T09:36:38;10.80;99.90
22956;DHT22;40888;48.148;11.526;2023-05-17T09:39:07;10.80;99.90
22956;DHT22;40888;48.148;11.526;2023-05-17T09:41:46;11.30;99.90
22956;DHT22;40888;48.148;11.526;2023-05-17T09:44:14;11.00;99.90
22956;DHT22;40888;48.148;11.526;2023-05-17T09:46:42;10.80;99.90
22956;DHT22;40888;48.148;11.526;2023-05-17T09:49:08;10.90;99.90
22956;DHT22;40888;48.148;11.526;2023-05-17T09:51:42;10.70;99.90
22956;DHT22;40888;48.148;11.526;2023-05-17T09:54:08;10.50;99.90
22956;DHT22;40888;48.148;11.526;2023-05-17T09:56:35;10.80;99.90
22956;DHT22;40888;48.148;11.526;2023-05-17T09:59:02;10.80;99.90
22956;DHT22;40888;48.148;11.526;2023-05-17T10:01:29;10.80;99.90
22956;DHT22;40888;48.148;11.526;2023-05-17T10:03:59;11.00;99.90
22956;DHT22;40888;48.148;11.526;2023-05-17T10:06:28;11.70;99.90
22956;DHT22;40888;48.148;11.526;2023-05-17T10:08:55;11.10;99.90
22956;DHT22;40888;48.148;11.526;2023-05-17T10:11:31;11.20;99.90
22956;DHT22;40888;48.148;11.526;2023-05-17T10:14:13;11.30;99.90
22956;DHT22;40888;48.148;11.526;2023-05-17T10:16:40;10.90;99.90
22956;DHT22;40888;48.148;11.526;2023-05-17T10:19:07;10.70;99.90
22956;DHT22;40888;48.148;11.526;2023-05-17T10:21:35;10.70;99.90
22956;DHT22;40888;48.148;11.526;2023-05-17T10:24:02;10.70;99.90
22956;DHT22;40888;48.148;11.526;2023-05-17T10:26:28;10.70;99.90
22956;DHT22;40888;48.148;11.526;2023-05-17T10:28:59;11.00;99.90
22956;DHT22;40888;48.148;11.526;2023-05-17T10:31:30;11.10;99.90
22956;DHT22;40888;48.148;11.526;2023-05-17T10:34:02;11.00;99.90
22956;DHT22;40888;48.148;11.526;2023-05-17T10:36:28;11.00;99.90
22956;DHT22;40888;48.148;11.526;2023-05-17T10:38:54;11.00;99.90
22956;DHT22;40888;48.148;11.526;2023-05-17T10:41:23;11.00;99.90
22956;DHT22;40888;48.148;11.526;2023-05-17T10:43:50;11.30;99.90
22956;DHT22;40888;48.148;11.526;2023-05-17T10:46:18;11.20;99.90
22956;DHT22;40888;48.148;11.526;2023-05-17T10:48:53;12.00;99.90
22956;DHT22;40888;48.148;11.526;2023-05-17T10:51:24;12.40;99.90
22956;DHT22;40888;48.148;11.526;2023-05-17T10:54:13;12.50;99.90
22956;DHT22;40888;48.148;11.526;2023-05-17T10:56:51;12.10;99.90
22956;DHT22;40888;48.148;11.526;2023-05-17T10:59:24;11.80;99.90
22956;DHT22;40888;48.148;11.526;2023-05-17T11:02:08;12.00;99.90
22956;DHT22;40888;48.148;11.526;2023-05-17T11:04:39;11.60;99.90
22956;DHT22;40888;48.148;11.526;2023-05-17T11:09:44;11.70;99.90
22956;DHT22;40888;48.148;11.526;2023-05-17T11:12:12;11.50;99.90
22956;DHT22;40888;48.148;11.526;2023-05-17T11:14:55;11.40;99.90
22956;DHT22;40888;48.148;11.526;2023-05-17T11:17:26;11.70;99.90
22956;DHT22;40888;48.148;11.526;2023-05-17T11:20:03;11.80;99.90
22956;DHT22;40888;48.148;11.526;2023-05-17T11:22:36;12.00;99.90
22956;DHT22;40888;48.148;11.526;2023-05-17T11:25:06;12.00;99.90
22956;DHT22;40888;48.148;11.526;2023-05-17T11:27:47;11.90;99.90
22956;DHT22;40888;48.148;11.526;2023-05-17T11:32:49;11.80;99.90
22956;DHT22;40888;48.148;11.526;2023-05-17T11:35:24;11.70;99.90
22956;DHT22;40888;48.148;11.526;2023-05-17T11:37:52;11.70;99.90
22956;DHT22;40888;48.148;11.526;2023-05-17T11:40:26;12.00;99.90
22956;DHT22;40888;48.148;11.526;2023-05-17T11:43:15;12.00;99.90
22956;DHT22;40888;48.148;11.526;2023-05-17T11:45:52;12.10;99.90
22956;DHT22;40888;48.148;11.526;2023-05-17T11:48:21;11.90;99.90
22956;DHT22;40888;48.148;11.526;2023-05-17T11:50:47;12.00;99.90
22956;DHT22;40888;48.148;11.526;2023-05-17T11:53:14;12.20;99.90
22956;DHT22;40888;48.148;11.526;2023-05-17T11:55:45;12.50;99.90
22956;DHT22;40888;48.148;11.526;2023-05-17T11:58:13;12.40;99.90
22956;DHT22;40888;48.148;11.526;2023-05-17T12:00:40;12.70;99.90
22956;DHT22;40888;48.148;11.526;2023-05-17T12:03:22;12.50;99.90
22956;DHT22;40888;48.148;11.526;2023-05-17T12:06:03;12.00;99.90
22956;DHT22;40888;48.148;11.526;2023-05-17T12:08:29;12.00;99.90
22956;DHT22;40888;48.148;11.526;2023-05-17T12:10:56;11.90;99.90
22956;DHT22;40888;48.148;11.526;2023-05-17T12:13:27;11.90;99.90
22956;DHT22;40888;48.148;11.526;2023-05-17T12:15:56;12.30;99.90
22956;DHT22;40888;48.148;11.526;2023-05-17T12:18:43;12.80;99.90
22956;DHT22;40888;48.148;11.526;2023-05-17T12:21:12;12.40;99.90
22956;DHT22;40888;48.148;11.526;2023-05-17T12:23:40;13.30;99.90
22956;DHT22;40888;48.148;11.526;2023-05-17T12:26:23;13.20;99.90
22956;DHT22;40888;48.148;11.526;2023-05-17T12:28:56;13.00;99.90
22956;DHT22;40888;48.148;11.526;2023-05-17T12:31:36;12.40;99.90
22956;DHT22;40888;48.148;11.526;2023-05-17T12:34:06;12.70;99.90
22956;DHT22;40888;48.148;11.526;2023-05-17T12:36:34;12.10;99.90
22956;DHT22;40888;48.148;11.526;2023-05-17T12:39:00;11.90;99.90
22956;DHT22;40888;48.148;11.526;2023-05-17T12:41:26;11.90;99.90
22956;DHT22;40888;48.148;11.526;2023-05-17T12:43:52;11.90;99.90
22956;DHT22;40888;48.148;11.526;2023-05-17T12:46:21;12.10;99.90
22956;DHT22;40888;48.148;11.526;2023-05-17T12:48:49;12.10;99.90
22956;DHT22;40888;48.148;11.526;2023-05-17T12:51:20;12.30;99.90
22956;DHT22;40888;48.148;11.526;2023-05-17T12:53:53;12.40;99.90
22956;DHT22;40888;48.148;11.526;2023-05-17T12:56:21;12.30;99.90
22956;DHT22;40888;48.148;11.526;2023-05-17T13:01:49;13.00;99.90
22956;DHT22;40888;48.148;11.526;2023-05-17T13:04:16;13.20;99.90
22956;DHT22;40888;48.148;11.526;2023-05-17T13:06:53;13.40;99.90
22956;DHT22;40888;48.148;11.526;2023-05-17T13:09:20;13.30;99.90
22956;DHT22;40888;48.148;11.526;2023-05-17T13:11:56;13.30;99.70
22956;DHT22;40888;48.148;11.526;2023-05-17T13:14:45;13.30;99.90
22956;DHT22;40888;48.148;11.526;2023-05-17T13:17:17;13.40;99.90
22956;DHT22;40888;48.148;11.526;2023-05-17T13:19:45;12.90;99.90
22956;DHT22;40888;48.148;11.526;2023-05-17T13:22:11;12.60;99.90
22956;DHT22;40888;48.148;11.526;2023-05-17T13:24:37;12.50;99.90
22956;DHT22;40888;48.148;11.526;2023-05-17T13:27:04;12.90;99.90
22956;DHT22;40888;48.148;11.526;2023-05-17T13:29:32;12.90;99.90
22956;DHT22;40888;48.148;11.526;2023-05-17T13:31:58;13.00;99.90
22956;DHT22;40888;48.148;11.526;2023-05-17T13:34:23;13.40;99.90
22956;DHT22;40888;48.148;11.526;2023-05-17T13:36:49;13.50;99.90
22956;DHT22;40888;48.148;11.526;2023-05-17T13:39:15;13.40;99.90
22956;DHT22;40888;48.148;11.526;2023-05-17T13:41:42;13.50;96.00
22956;DHT22;40888;48.148;11.526;2023-05-17T13:44:08;13.00;99.90
22956;DHT22;40888;48.148;11.526;2023-05-17T13:46:34;12.80;99.90
22956;DHT22;40888;48.148;11.526;2023-05-17T13:49:01;13.30;99.90
22956;DHT22;40888;48.148;11.526;2023-05-17T13:51:32;13.00;99.90
22956;DHT22;40888;48.148;11.526;2023-05-17T13:53:59;13.00;99.90
22956;DHT22;40888;48.148;11.526;2023-05-17T13:56:25;12.80;99.90
22956;DHT22;40888;48.148;11.526;2023-05-17T13:58:51;12.70;99.90
22956;DHT22;40888;48.148;11.526;2023-05-17T14:01:17;13.20;98.20
22956;DHT22;40888;48.148;11.526;2023-05-17T14:03:46;13.70;81.30
22956;DHT22;40888;48.148;11.526;2023-05-17T14:06:11;13.80;99.90
22956;DHT22;40888;48.148;11.526;2023-05-17T14:08:37;12.80;99.90
22956;DHT22;40888;48.148;11.526;2023-05-17T14:11:03;12.60;99.90
22956;DHT22;40888;48.148;11.526;2023-05-17T14:13:29;13.00;99.90
22956;DHT22;40888;48.148;11.526;2023-05-17T14:15:55;13.00;99.90
22956;DHT22;40888;48.148;11.526;2023-05-17T14:18:20;12.90;99.90
22956;DHT22;40888;48.148;11.526;2023-05-17T14:20:46;12.50;99.90
22956;DHT22;40888;48.148;11.526;2023-05-17T14:23:12;12.60;99.90
22956;DHT22;40888;48.148;11.526;2023-05-17T14:25:37;12.60;99.90
22956;DHT22;40888;48.148;11.526;2023-05-17T14:28:04;13.30;99.90
22956;DHT22;40888;48.148;11.526;2023-05-17T14:30:30;13.40;99.90
22956;DHT22;40888;48.148;11.526;2023-05-17T14:32:56;13.80;88.50
22956;DHT22;40888;48.148;11.526;2023-05-17T14:35:23;13.60;99.90
22956;DHT22;40888;48.148;11.526;2023-05-17T14:37:49;13.90;99.90
22956;DHT22;40888;48.148;11.526;2023-05-17T14:40:14;13.60;99.90
22956;DHT22;40888;48.148;11.526;2023-05-17T14:42:40;13.80;99.90
22956;DHT22;40888;48.148;11.526;2023-05-17T14:45:06;13.20;99.90
22956;DHT22;40888;48.148;11.526;2023-05-17T14:47:33;13.20;99.90
22956;DHT22;40888;48.148;11.526;2023-05-17T14:49:58;12.90;99.90
22956;DHT22;40888;48.148;11.526;2023-05-17T14:52:24;13.00;99.90
22956;DHT22;40888;48.148;11.526;2023-05-17T14:54:50;13.10;99.90
22956;DHT22;40888;48.148;11.526;2023-05-17T14:57:16;13.10;99.90
22956;DHT22;40888;48.148;11.526;2023-05-17T14:59:42;13.20;99.90
22956;DHT22;40888;48.148;11.526;2023-05-17T15:02:09;13.20;99.90
22956;DHT22;40888;48.148;11.526;2023-05-17T15:04:35;13.20;99.90
22956;DHT22;40888;48.148;11.526;2023-05-17T15:07:01;12.90;99.90
22956;DHT22;40888;48.148;11.526;2023-05-17T15:09:27;13.30;99.90
22956;DHT22;40888;48.148;11.526;2023-05-17T15:11:55;13.40;99.90
22956;DHT22;40888;48.148;11.526;2023-05-17T15:14:21;13.50;99.90
22956;DHT22;40888;48.148;11.526;2023-05-17T15:16:49;13.70;99.90
22956;DHT22;40888;48.148;11.526;2023-05-17T15:19:16;13.70;99.90
22956;DHT22;40888;48.148;11.526;2023-05-17T15:21:43;13.10;99.90
22956;DHT22;40888;48.148;11.526;2023-05-17T15:24:08;13.00;99.90
22956;DHT22;40888;48.148;11.526;2023-05-17T15:26:34;12.60;99.90
22956;DHT22;40888;48.148;11.526;2023-05-17T15:29:00;12.60;99.90
22956;DHT22;40888;48.148;11.526;2023-05-17T15:31:26;12.70;99.90
22956;DHT22;40888;48.148;11.526;2023-05-17T15:33:53;12.60;99.90
22956;DHT22;40888;48.148;11.526;2023-05-17T15:36:19;12.60;99.90
22956;DHT22;40888;48.148;11.526;2023-05-17T15:38:45;12.60;99.90
22956;DHT22;40888;48.148;11.526;2023-05-17T15:41:13;12.70;99.90
22956;DHT22;40888;48.148;11.526;2023-05-17T15:43:39;12.80;99.90
22956;DHT22;40888;48.148;11.526;2023-05-17T15:46:06;12.80;99.90